Time;durP1;ratioP1;P1;durP2;ratioP2;P2;SDS_P1;SDS_P2;PMS_P1;PMS_P2;Temp;Humidity;BMP_temperature;BMP_pressure;BME280_temperature;BME280_humidity;BME280_pressure;Samples;Min_cycle;Max_cycle;Signal;HPM_P1;HPM_P2
2020/12/30 00:01:25;;;;;;;;;4.40;4.00;;;;;14.17;41.86;97431.84;6148088;28;126757;-61
2020/12/30 00:04:26;;;;;;;;;3.00;3.00;;;;;14.11;42.19;97443.78;6149889;28;126440;-61
2020/12/30 00:07:31;;;;;;;;;3.00;3.00;;;;;13.66;42.82;97410.41;6155690;28;126706;-61
2020/12/30 00:10:33;;;;;;;;;2.00;2.00;;;;;13.72;43.23;97427.44;6147349;28;126722;-61
2020/12/30 00:13:34;;;;;;;;;4.00;3.50;;;;;13.76;43.12;97440.16;6153070;28;126684;-62
2020/12/30 00:16:36;;;;;;;;;3.00;3.00;;;;;13.47;43.32;97422.13;6148568;28;125327;-62
2020/12/30 00:19:37;;;;;;;;;2.40;2.40;;;;;13.63;43.23;97446.19;6144620;28;126070;-62
2020/12/30 00:22:40;;;;;;;;;3.00;3.00;;;;;13.52;43.63;97446.47;6161075;28;125415;-62
2020/12/30 00:25:41;;;;;;;;;3.00;3.00;;;;;13.36;43.85;97429.44;6160670;28;125309;-62
2020/12/30 00:28:42;;;;;;;;;3.00;2.00;;;;;13.36;44.09;97437.56;6160086;28;126567;-62
2020/12/30 00:31:44;;;;;;;;;4.00;3.00;;;;;13.38;43.81;97441.66;6155290;28;125439;-62
2020/12/30 00:34:45;;;;;;;;;2.20;1.80;;;;;13.37;43.77;97441.91;6137929;28;127226;-62
2020/12/30 00:37:47;;;;;;;;;3.50;3.50;;;;;13.14;43.39;97413.56;6160805;28;126597;-62
2020/12/30 00:40:48;;;;;;;;;3.80;3.00;;;;;13.36;43.36;97451.09;6152910;28;126792;-62
2020/12/30 00:43:49;;;;;;;;;4.00;3.00;;;;;13.02;43.36;97405.69;6160306;28;125389;-62
2020/12/30 00:46:52;;;;;;;;;3.00;3.00;;;;;13.25;43.38;97454.91;6160267;28;127137;-61
2020/12/30 00:49:54;;;;;;;;;5.00;4.00;;;;;13.19;43.73;97456.03;6143906;28;125062;-61
2020/12/30 00:52:55;;;;;;;;;3.40;3.00;;;;;13.07;43.44;97450.84;6151798;28;126380;-61
2020/12/30 00:55:57;;;;;;;;;2.00;2.00;;;;;13.08;43.69;97459.78;6157909;28;126450;-61
2020/12/30 00:59:01;;;;;;;;;2.60;2.60;;;;;13.04;43.84;97462.25;6150614;28;124949;-61
2020/12/30 01:02:02;;;;;;;;;4.00;3.00;;;;;12.98;44.31;97466.03;6150091;28;126836;-61
2020/12/30 01:05:08;;;;;;;;;4.00;3.00;;;;;13.00;44.38;97461.13;6143848;28;124784;-61
2020/12/30 01:08:10;;;;;;;;;6.00;5.00;;;;;12.87;44.08;97454.38;6159964;28;124562;-61
2020/12/30 01:11:11;;;;;;;;;4.75;3.75;;;;;12.89;44.14;97446.00;6160776;28;124240;-62
2020/12/30 01:14:13;;;;;;;;;2.00;2.00;;;;;12.93;44.38;97458.72;6160511;28;126068;-61
2020/12/30 01:17:14;;;;;;;;;3.00;3.00;;;;;12.83;44.74;97438.97;6150207;28;124596;-61
2020/12/30 01:20:16;;;;;;;;;2.00;1.60;;;;;12.90;44.81;97442.22;6144526;28;125574;-62
2020/12/30 01:23:17;;;;;;;;;4.00;4.00;;;;;12.84;44.77;97446.00;6160303;28;127748;-61
2020/12/30 01:26:19;;;;;;;;;4.00;4.00;;;;;12.70;45.47;97443.03;6159363;28;126845;-61
2020/12/30 01:29:20;;;;;;;;;4.00;3.00;;;;;12.68;45.20;97447.09;6159448;28;126719;-61
2020/12/30 01:32:22;;;;;;;;;4.00;4.00;;;;;12.59;45.27;97422.47;6158782;28;125411;-62
2020/12/30 01:35:23;;;;;;;;;4.60;4.60;;;;;12.56;45.12;97420.31;6147299;28;125706;-61
2020/12/30 01:38:24;;;;;;;;;2.60;2.60;;;;;12.77;45.14;97440.88;6159829;28;126196;-62
2020/12/30 01:41:26;;;;;;;;;6.00;5.20;;;;;12.85;44.43;97447.66;6159491;28;125343;-62
2020/12/30 01:44:27;;;;;;;;;4.00;4.00;;;;;12.82;44.08;97440.06;6159571;28;125386;-62
2020/12/30 01:47:31;;;;;;;;;4.00;4.00;;;;;12.77;44.03;97431.94;6142597;28;124983;-62
2020/12/30 01:50:32;;;;;;;;;4.00;3.60;;;;;12.47;44.81;97411.94;6163411;28;126788;-62
2020/12/30 01:53:34;;;;;;;;;4.00;4.00;;;;;12.65;44.75;97429.53;6162037;28;125129;-62
2020/12/30 01:56:36;;;;;;;;;3.00;3.00;;;;;12.48;44.61;97404.63;6159689;28;126637;-62
2020/12/30 01:59:38;;;;;;;;;3.20;3.20;;;;;12.44;44.56;97409.78;6159063;28;125225;-63
2020/12/30 02:02:47;;;;;;;;;2.25;2.25;;;;;12.61;44.48;97428.41;6148854;28;125177;-62
2020/12/30 02:05:49;;;;;;;;;2.80;2.80;;;;;12.59;44.35;97419.78;6158788;28;123932;-62
2020/12/30 02:08:52;;;;;;;;;3.00;3.00;;;;;12.51;44.63;97420.34;6147453;28;125777;-62
2020/12/30 02:11:53;;;;;;;;;4.60;3.60;;;;;12.44;45.05;97430.59;6158991;28;125413;-62
2020/12/30 02:14:55;;;;;;;;;5.00;5.00;;;;;12.45;44.82;97424.91;6159070;28;126715;-61
2020/12/30 02:17:57;;;;;;;;;5.00;4.00;;;;;12.27;44.57;97403.78;6158162;28;125422;-62
2020/12/30 02:20:59;;;;;;;;;4.40;4.00;;;;;12.30;44.88;97413.28;6158043;28;124589;-62
2020/12/30 02:24:00;;;;;;;;;7.00;5.25;;;;;12.13;46.45;97413.50;6157850;28;126721;-62
2020/12/30 02:27:04;;;;;;;;;6.00;6.00;;;;;12.20;45.73;97415.97;6158380;28;125556;-62
2020/12/30 02:30:06;;;;;;;;;6.00;4.75;;;;;11.99;46.43;97398.91;6144311;28;126091;-62
2020/12/30 02:33:09;;;;;;;;;5.50;5.00;;;;;12.09;45.54;97415.94;6145087;28;124866;-62
2020/12/30 02:36:10;;;;;;;;;5.00;4.00;;;;;12.02;45.50;97420.78;6158571;28;126358;-62
2020/12/30 02:39:12;;;;;;;;;5.00;5.00;;;;;11.87;45.92;97406.44;6153200;28;125618;-62
2020/12/30 02:42:14;;;;;;;;;6.00;6.00;;;;;11.99;46.23;97432.13;6161930;28;124571;-62
2020/12/30 02:45:15;;;;;;;;;9.25;6.75;;;;;11.99;46.00;97415.91;6160747;28;124990;-62
2020/12/30 02:48:18;;;;;;;;;5.40;5.40;;;;;11.98;46.38;97416.16;6163380;28;97077;-62
2020/12/30 02:51:19;;;;;;;;;8.60;7.00;;;;;10.84;46.53;97242.53;6162820;28;125635;-62
2020/12/30 02:54:21;;;;;;;;;8.00;5.00;;;;;11.77;46.92;97426.13;6158757;28;126104;-62
2020/12/30 02:57:22;;;;;;;;;8.25;6.25;;;;;11.82;46.75;97419.91;6162587;28;125507;-63
2020/12/30 03:00:23;;;;;;;;;10.00;9.00;;;;;11.82;46.68;97425.31;6153571;28;126458;-62
2020/12/30 03:03:25;;;;;;;;;8.50;7.00;;;;;11.82;46.38;97423.44;6161648;28;125507;-62
2020/12/30 03:06:27;;;;;;;;;7.80;6.00;;;;;11.52;46.53;97377.41;6161272;28;125125;-62
2020/12/30 03:09:28;;;;;;;;;8.60;8.00;;;;;11.68;46.33;97428.47;6161733;28;127237;-62
2020/12/30 03:12:30;;;;;;;;;8.60;8.60;;;;;11.69;46.25;97411.19;6148253;28;125317;-62
2020/12/30 03:15:31;;;;;;;;;8.00;7.80;;;;;11.62;46.23;97416.03;6146417;28;125383;-62
2020/12/30 03:18:32;;;;;;;;;10.40;9.40;;;;;11.59;46.26;97419.25;6156306;28;126669;-62
2020/12/30 03:21:34;;;;;;;;;9.00;8.40;;;;;11.58;46.50;97422.22;6162341;28;126605;-62
2020/12/30 03:24:35;;;;;;;;;11.00;10.00;;;;;11.29;46.25;97392.94;6155964;28;124730;-62
2020/12/30 03:27:36;;;;;;;;;12.00;9.40;;;;;11.56;46.00;97418.97;6160954;28;126959;-62
2020/12/30 03:30:38;;;;;;;;;9.60;8.00;;;;;11.47;45.89;97410.56;6160629;28;127362;-62
2020/12/30 03:33:39;;;;;;;;;10.00;8.00;;;;;11.51;46.33;97417.06;6156340;28;126759;-62
2020/12/30 03:36:41;;;;;;;;;11.50;9.50;;;;;11.46;46.59;97413.53;6161010;28;125371;-62
2020/12/30 03:39:43;;;;;;;;;9.60;9.60;;;;;11.41;46.46;97400.81;6153934;28;124313;-62
2020/12/30 03:42:44;;;;;;;;;11.50;10.00;;;;;11.45;46.49;97401.09;6160149;28;125527;-61
2020/12/30 03:45:45;;;;;;;;;10.80;10.00;;;;;11.43;46.22;97397.88;6160071;28;126912;-62
2020/12/30 03:48:47;;;;;;;;;10.00;10.00;;;;;11.38;46.56;97411.34;6160100;28;125541;-62
2020/12/30 03:51:49;;;;;;;;;12.00;10.00;;;;;11.07;46.64;97373.41;6160960;28;125349;-62
2020/12/30 03:54:50;;;;;;;;;10.20;10.00;;;;;11.42;46.64;97405.16;6160739;28;125600;-61
2020/12/30 03:57:52;;;;;;;;;12.60;10.60;;;;;11.35;46.67;97411.84;6154018;28;126995;-61
2020/12/30 04:00:54;;;;;;;;;10.00;10.00;;;;;11.43;46.41;97392.47;6156157;28;125578;-61
2020/12/30 04:03:55;;;;;;;;;12.00;10.60;;;;;11.41;46.36;97391.91;6161474;28;127316;-61
2020/12/30 04:06:56;;;;;;;;;12.80;11.00;;;;;11.41;46.22;97392.72;6160719;28;126891;-61
2020/12/30 04:09:58;;;;;;;;;11.40;11.00;;;;;11.36;46.07;97381.09;6159567;28;127386;-61
2020/12/30 04:12:59;;;;;;;;;10.60;10.40;;;;;11.10;45.47;97364.78;6159980;28;125717;-61
2020/12/30 04:16:01;;;;;;;;;11.75;9.75;;;;;11.27;45.94;97402.38;6159460;28;124176;-61
2020/12/30 04:19:02;;;;;;;;;12.00;11.00;;;;;11.25;45.91;97399.13;6160582;28;127111;-61
2020/12/30 04:22:03;;;;;;;;;12.00;10.40;;;;;11.24;45.96;97408.28;6160061;28;125658;-61
2020/12/30 04:25:05;;;;;;;;;13.00;12.80;;;;;11.27;46.27;97414.00;6159949;28;125487;-61
2020/12/30 04:28:08;;;;;;;;;10.20;9.80;;;;;11.07;46.31;97378.81;6148712;28;126339;-61
2020/12/30 04:31:13;;;;;;;;;13.00;11.00;;;;;11.16;46.33;97403.38;6159218;28;127192;-61
2020/12/30 04:34:14;;;;;;;;;13.00;12.60;;;;;11.12;45.99;97430.06;6160105;28;125963;-61
2020/12/30 04:37:16;;;;;;;;;15.60;14.00;;;;;11.01;46.03;97425.69;6159818;28;126736;-62
2020/12/30 04:40:17;;;;;;;;;13.00;10.50;;;;;10.93;45.81;97418.09;6160527;28;126481;-61
2020/12/30 04:43:19;;;;;;;;;13.00;11.50;;;;;10.86;45.79;97415.59;6121672;28;124743;-61
2020/12/30 04:46:22;;;;;;;;;11.25;10.00;;;;;10.78;46.16;97416.09;6148996;28;126053;-62
2020/12/30 04:49:23;;;;;;;;;12.00;11.00;;;;;10.49;46.11;97378.94;6153956;28;125610;-61
2020/12/30 04:52:27;;;;;;;;;15.00;13.60;;;;;10.69;46.03;97423.03;6159800;28;126284;-62
2020/12/30 04:55:31;;;;;;;;;14.00;12.00;;;;;10.63;46.31;97420.56;6158699;28;124800;-61
2020/12/30 04:58:33;;;;;;;;;12.50;11.00;;;;;10.58;46.28;97407.84;6150778;28;126051;-61
2020/12/30 05:01:46;;;;;;;;;13.00;13.00;;;;;10.48;46.51;97415.84;6157517;28;127212;-62
2020/12/30 05:04:48;;;;;;;;;12.00;11.50;;;;;10.45;46.67;97421.78;6149192;28;126128;-61
2020/12/30 05:07:49;;;;;;;;;13.00;12.00;;;;;10.40;46.44;97427.09;6146453;28;125673;-61
2020/12/30 05:10:52;;;;;;;;;15.00;14.00;;;;;10.33;46.30;97430.00;6158760;28;125377;-62
2020/12/30 05:13:54;;;;;;;;;14.00;14.00;;;;;10.30;46.16;97432.41;6141544;28;127051;-62
2020/12/30 05:16:55;;;;;;;;;18.20;15.00;;;;;10.25;46.62;97430.47;6144347;28;125792;-62
2020/12/30 05:19:56;;;;;;;;;13.00;12.50;;;;;10.15;47.20;97432.22;6157920;28;126185;-62
2020/12/30 05:22:58;;;;;;;;;13.25;12.75;;;;;10.10;46.74;97419.53;6158765;28;127388;-62
2020/12/30 05:26:00;;;;;;;;;13.00;13.00;;;;;10.10;46.40;97434.84;6150837;28;127180;-61
2020/12/30 05:29:04;;;;;;;;;17.50;15.00;;;;;9.77;47.03;97382.03;6150114;28;126595;-61
2020/12/30 05:32:07;;;;;;;;;18.60;17.00;;;;;10.05;46.57;97414.09;6142328;28;126621;-61
2020/12/30 05:35:08;;;;;;;;;17.00;16.40;;;;;10.18;46.62;97429.84;6148806;28;125077;-62
2020/12/30 05:38:09;;;;;;;;;17.40;14.00;;;;;10.18;46.80;97435.25;6159077;28;125465;-62
2020/12/30 05:41:21;;;;;;;;;16.25;16.00;;;;;10.23;47.62;97434.47;6158616;28;125503;-61
2020/12/30 05:44:22;;;;;;;;;17.00;15.00;;;;;10.16;47.95;97420.41;6158362;28;124966;-61
2020/12/30 05:47:26;;;;;;;;;15.60;14.40;;;;;9.96;48.34;97378.75;6159252;28;125591;-61
2020/12/30 05:50:27;;;;;;;;;15.00;14.00;;;;;10.34;48.04;97428.13;6158869;28;124754;-61
2020/12/30 05:53:28;;;;;;;;;19.40;17.00;;;;;10.39;47.80;97423.59;6158114;28;125611;-61
2020/12/30 05:56:32;;;;;;;;;19.00;16.60;;;;;10.32;47.65;97420.28;6146255;28;127054;-61
2020/12/30 05:59:38;;;;;;;;;20.60;16.00;;;;;10.32;47.91;97406.00;6153718;28;124903;-61
2020/12/30 06:02:44;;;;;;;;;17.40;16.00;;;;;10.46;47.76;97426.06;6158660;28;124807;-61
2020/12/30 06:05:46;;;;;;;;;18.00;16.00;;;;;10.35;48.24;97430.56;6158372;28;124872;-62
2020/12/30 06:08:51;;;;;;;;;16.00;15.00;;;;;10.42;47.92;97425.78;6158709;28;127561;-62
2020/12/30 06:11:54;;;;;;;;;13.00;11.20;;;;;10.50;47.77;97421.00;6157963;28;127060;-62
2020/12/30 06:14:55;;;;;;;;;18.00;16.00;;;;;10.54;47.76;97427.50;6163346;28;126228;-62
2020/12/30 06:18:06;;;;;;;;;15.40;14.60;;;;;10.55;47.67;97426.44;6162783;28;125440;-62
2020/12/30 06:21:09;;;;;;;;;16.40;14.80;;;;;10.60;47.67;97421.91;6163159;28;125963;-61
2020/12/30 06:24:13;;;;;;;;;20.75;17.00;;;;;10.50;47.60;97421.00;6152995;28;124166;-61
2020/12/30 06:27:20;;;;;;;;;16.00;15.00;;;;;10.67;47.54;97437.84;6155859;28;126077;-61
2020/12/30 06:30:22;;;;;;;;;16.00;15.40;;;;;10.75;47.53;97430.06;6162780;28;125091;-61
2020/12/30 06:33:24;;;;;;;;;16.00;15.00;;;;;10.81;47.42;97439.03;6162707;28;125231;-62
2020/12/30 06:36:25;;;;;;;;;15.20;14.20;;;;;10.89;47.22;97425.06;6162693;28;126899;-61
2020/12/30 06:39:27;;;;;;;;;15.00;14.00;;;;;10.94;47.17;97435.09;6164026;28;127332;-61
2020/12/30 06:42:32;;;;;;;;;19.00;16.80;;;;;10.95;47.19;97428.59;6141706;28;125215;-61
2020/12/30 06:45:42;;;;;;;;;16.60;15.40;;;;;10.94;47.11;97430.50;6160547;28;124488;-62
2020/12/30 06:48:53;;;;;;;;;15.40;14.40;;;;;10.91;46.98;97419.41;6158733;28;124753;-61
2020/12/30 06:51:54;;;;;;;;;15.00;14.40;;;;;10.94;46.95;97425.13;6160809;28;125895;-61
2020/12/30 06:54:56;;;;;;;;;14.20;12.80;;;;;10.95;46.88;97412.41;6150557;28;127453;-61
2020/12/30 06:57:57;;;;;;;;;18.00;17.40;;;;;10.81;47.13;97399.41;6161062;28;126507;-61
2020/12/30 07:00:58;;;;;;;;;16.00;15.60;;;;;10.98;46.74;97420.81;6162080;28;125300;-61
2020/12/30 07:04:08;;;;;;;;;18.25;16.25;;;;;11.07;46.81;97431.94;6162087;28;126545;-61
2020/12/30 07:07:29;;;;;;;;;16.33;14.33;;;;;11.09;46.60;97432.50;6145785;28;126045;-61
2020/12/30 07:10:31;;;;;;;;;18.60;16.00;;;;;11.11;46.47;97441.13;6161963;28;124808;-62
2020/12/30 07:13:42;;;;;;;;;16.00;14.00;;;;;11.05;46.54;97432.19;6158100;28;127641;-61
2020/12/30 07:16:52;;;;;;;;;17.00;15.60;;;;;11.02;46.83;97438.09;6150572;28;126116;-61
2020/12/30 07:19:53;;;;;;;;;17.40;16.00;;;;;10.97;46.89;97443.47;6161609;28;127078;-62
2020/12/30 07:23:06;;;;;;;;;15.20;13.20;;;;;10.93;46.84;97442.34;6143914;28;126665;-62
2020/12/30 07:26:19;;;;;;;;;21.20;20.00;;;;;10.85;47.10;97450.91;6144983;28;123865;-62
2020/12/30 07:29:22;;;;;;;;;13.20;13.00;;;;;10.75;47.12;97443.56;6161557;28;127016;-62
2020/12/30 07:32:23;;;;;;;;;18.50;15.00;;;;;10.86;47.06;97452.53;6161401;28;125770;-62
2020/12/30 07:35:24;;;;;;;;;16.25;13.00;;;;;10.75;47.14;97440.06;6158268;28;124594;-62
2020/12/30 07:38:26;;;;;;;;;15.00;14.00;;;;;10.91;47.05;97452.56;6147650;28;126573;-62
2020/12/30 07:41:31;;;;;;;;;16.00;15.00;;;;;10.97;46.86;97453.44;6160912;28;125398;-62
2020/12/30 07:44:33;;;;;;;;;18.00;16.25;;;;;10.97;46.87;97454.25;6160571;28;126226;-62
2020/12/30 07:47:35;;;;;;;;;18.60;17.00;;;;;11.04;46.90;97451.34;6161350;28;125082;-62
2020/12/30 07:50:49;;;;;;;;;19.00;18.00;;;;;10.85;47.31;97415.84;6147267;28;125508;-62
2020/12/30 07:53:51;;;;;;;;;19.80;16.60;;;;;11.14;47.20;97454.88;6161228;28;127240;-61
2020/12/30 07:57:01;;;;;;;;;19.25;17.50;;;;;11.21;47.08;97449.28;6161230;28;126998;-61
2020/12/30 08:00:03;;;;;;;;;18.00;16.80;;;;;11.13;47.08;97434.41;6161263;28;127581;-61
2020/12/30 08:03:14;;;;;;;;;19.00;16.50;;;;;11.24;46.82;97449.56;6160194;28;127274;-61
2020/12/30 08:06:16;;;;;;;;;18.50;17.00;;;;;11.42;46.89;97439.41;6160794;28;126029;-61
2020/12/30 08:09:19;;;;;;;;;18.80;16.80;;;;;11.50;46.57;97447.00;6160762;28;126716;-62
2020/12/30 08:12:22;;;;;;;;;15.50;15.00;;;;;11.57;46.61;97434.91;6160780;28;126823;-62
2020/12/30 08:15:24;;;;;;;;;19.50;17.50;;;;;11.61;46.60;97425.22;6160898;28;127627;-62
2020/12/30 08:18:25;;;;;;;;;16.50;15.00;;;;;11.68;46.56;97424.94;6160618;28;124994;-62
2020/12/30 08:21:27;;;;;;;;;20.00;19.00;;;;;11.72;46.48;97439.56;6160738;28;126707;-62
2020/12/30 08:24:29;;;;;;;;;20.00;17.60;;;;;11.75;46.24;97443.63;6160292;28;125692;-61
2020/12/30 08:27:31;;;;;;;;;19.40;19.40;;;;;11.80;46.40;97441.78;6160582;28;126501;-61
2020/12/30 08:30:59;;;;;;;;;24.80;21.80;;;;;11.82;45.98;97449.63;6160272;28;125736;-62
2020/12/30 08:34:01;;;;;;;;;19.00;18.00;;;;;11.64;45.94;97415.75;6160069;28;126846;-61
2020/12/30 08:37:08;;;;;;;;;23.25;21.00;;;;;11.89;45.84;97445.59;6159793;28;127297;-63
2020/12/30 08:40:21;;;;;;;;;21.25;19.75;;;;;11.92;45.71;97453.19;6143211;28;126036;-62
2020/12/30 08:43:37;;;;;;;;;27.00;23.60;;;;;11.85;45.36;97440.97;6159511;28;124666;-61
2020/12/30 08:46:41;;;;;;;;;26.50;24.50;;;;;12.00;45.29;97468.84;6159139;28;125894;-61
2020/12/30 08:49:43;;;;;;;;;26.50;22.75;;;;;12.01;45.22;97462.38;6143754;28;125861;-61
2020/12/30 08:52:45;;;;;;;;;22.40;20.40;;;;;12.03;45.46;97462.91;6159845;28;126619;-62
2020/12/30 08:55:55;;;;;;;;;25.50;20.50;;;;;12.02;45.67;97463.19;6159312;28;127122;-62
2020/12/30 08:58:57;;;;;;;;;21.80;18.80;;;;;12.03;45.89;97464.78;6159997;28;126375;-62
2020/12/30 09:02:12;;;;;;;;;21.60;21.00;;;;;11.65;45.91;97412.81;6157264;28;126047;-62
2020/12/30 09:05:30;;;;;;;;;23.25;20.25;;;;;11.80;46.11;97430.97;6142920;28;125979;-62
2020/12/30 09:08:31;;;;;;;;;22.00;21.00;;;;;11.89;46.36;97442.88;6159344;28;127077;-62
2020/12/30 09:11:32;;;;;;;;;23.00;20.00;;;;;12.05;46.48;97463.47;6157797;28;127197;-61
2020/12/30 09:14:38;;;;;;;;;22.40;21.00;;;;;12.09;46.43;97461.03;6158832;28;127449;-61
2020/12/30 09:17:39;;;;;;;;;22.60;21.00;;;;;12.12;46.67;97457.78;6158802;28;124868;-62
2020/12/30 09:20:42;;;;;;;;;25.00;22.00;;;;;11.83;46.88;97403.44;6158329;28;125294;-62
2020/12/30 09:23:43;;;;;;;;;24.60;23.00;;;;;12.21;46.86;97460.81;6157776;28;126340;-63
2020/12/30 09:26:44;;;;;;;;;22.00;20.40;;;;;12.20;46.82;97453.78;6158749;28;125365;-63
2020/12/30 09:30:11;;;;;;;;;26.75;24.75;;;;;12.20;47.01;97461.88;6158759;28;128408;-62
2020/12/30 09:33:15;;;;;;;;;31.00;27.00;;;;;11.78;46.85;97400.72;6154887;28;124911;-61
2020/12/30 09:36:17;;;;;;;;;23.00;22.00;;;;;12.15;47.24;97463.50;6159053;28;126171;-63
2020/12/30 09:39:18;;;;;;;;;24.40;23.00;;;;;12.05;47.28;97441.88;6158930;28;124129;-62
2020/12/30 09:42:20;;;;;;;;;25.00;23.00;;;;;12.06;47.10;97424.59;6147807;28;125273;-62
2020/12/30 09:45:21;;;;;;;;;26.00;23.00;;;;;12.10;47.45;97444.56;6152409;28;125257;-62
2020/12/30 09:48:23;;;;;;;;;27.67;24.67;;;;;12.28;47.04;97445.16;6151123;28;125331;-61
2020/12/30 09:51:24;;;;;;;;;25.40;22.00;;;;;12.29;47.20;97444.88;6158911;28;127497;-62
2020/12/30 09:54:26;;;;;;;;;26.40;26.40;;;;;12.07;47.41;97433.50;6158944;28;128583;-63
2020/12/30 09:57:27;;;;;;;;;30.80;27.80;;;;;12.26;47.33;97444.63;6158821;28;127955;-61
2020/12/30 10:00:29;;;;;;;;;31.40;26.40;;;;;12.34;47.25;97446.78;6157858;28;125344;-63
2020/12/30 10:03:30;;;;;;;;;30.00;27.20;;;;;12.39;47.61;97442.19;6158599;28;126307;-62
2020/12/30 10:06:32;;;;;;;;;25.60;24.60;;;;;12.41;47.69;97431.91;6158232;28;127641;-62
2020/12/30 10:09:34;;;;;;;;;27.20;25.00;;;;;12.26;47.67;97402.19;6157651;28;125565;-62
2020/12/30 10:12:39;;;;;;;;;32.00;28.60;;;;;12.43;47.40;97424.38;6157750;28;127840;-62
2020/12/30 10:15:40;;;;;;;;;30.20;27.00;;;;;12.51;47.78;97423.81;6158082;28;125764;-62
2020/12/30 10:18:42;;;;;;;;;29.40;28.40;;;;;12.58;47.69;97420.84;6157660;28;125540;-62
2020/12/30 10:21:43;;;;;;;;;25.00;24.60;;;;;12.65;48.02;97418.72;6157347;28;127683;-62
2020/12/30 10:24:44;;;;;;;;;28.80;26.80;;;;;12.65;48.17;97393.56;6144192;28;125189;-62
2020/12/30 10:27:46;;;;;;;;;31.00;28.00;;;;;12.89;48.21;97405.44;6155714;28;125400;-62
2020/12/30 10:30:47;;;;;;;;;30.50;27.50;;;;;12.99;47.68;97395.44;6158170;28;126485;-61
2020/12/30 10:33:49;;;;;;;;;27.00;25.40;;;;;13.15;47.14;97396.22;6137668;28;127480;-61
2020/12/30 10:36:51;;;;;;;;;22.00;20.75;;;;;13.23;47.05;97401.09;6154625;28;125160;-61
2020/12/30 10:39:52;;;;;;;;;28.00;24.40;;;;;13.32;46.88;97395.91;6124692;28;125367;-61
2020/12/30 10:42:54;;;;;;;;;27.00;24.00;;;;;13.37;46.78;97395.91;6157295;28;126551;-62
2020/12/30 10:45:56;;;;;;;;;25.40;25.00;;;;;13.37;46.38;97399.41;6155499;28;127130;-62
2020/12/30 10:48:57;;;;;;;;;24.00;23.00;;;;;12.98;45.83;97361.34;6155673;28;125922;-62
2020/12/30 10:51:58;;;;;;;;;23.00;21.00;;;;;13.08;46.06;97375.91;6142790;28;127013;-61
2020/12/30 10:55:00;;;;;;;;;27.00;25.40;;;;;12.97;45.80;97389.47;6165333;28;126455;-62
2020/12/30 10:58:01;;;;;;;;;25.20;24.80;;;;;12.98;45.39;97379.47;6155713;28;126839;-61
2020/12/30 11:01:10;;;;;;;;;26.00;23.00;;;;;12.93;46.04;97366.75;6159382;28;126500;-62
2020/12/30 11:04:12;;;;;;;;;27.00;25.60;;;;;13.02;45.55;97378.63;6145895;28;127010;-61
2020/12/30 11:07:13;;;;;;;;;25.80;24.00;;;;;13.06;45.58;97378.88;6161375;28;125145;-61
2020/12/30 11:10:14;;;;;;;;;28.00;26.00;;;;;13.06;45.96;97380.78;6161290;28;127162;-61
2020/12/30 11:13:16;;;;;;;;;25.50;24.50;;;;;12.89;46.27;97352.16;6160968;28;125485;-61
2020/12/30 11:16:17;;;;;;;;;24.00;24.00;;;;;13.11;46.32;97380.78;6160678;28;126633;-63
2020/12/30 11:19:19;;;;;;;;;26.00;24.00;;;;;13.14;46.14;97378.38;6161176;28;126707;-62
2020/12/30 11:22:20;;;;;;;;;27.75;26.00;;;;;13.16;46.03;97376.19;6155165;28;126921;-63
2020/12/30 11:25:22;;;;;;;;;26.00;24.00;;;;;13.20;46.02;97371.84;6161349;28;127493;-62
2020/12/30 11:28:23;;;;;;;;;25.00;23.20;;;;;13.26;46.33;97375.34;6139558;28;124226;-62
2020/12/30 11:31:25;;;;;;;;;29.00;25.00;;;;;13.30;46.38;97384.53;6160391;28;126677;-62
2020/12/30 11:34:26;;;;;;;;;25.40;23.40;;;;;13.31;46.09;97391.56;6147972;28;126339;-62
2020/12/30 11:37:27;;;;;;;;;25.50;23.00;;;;;13.33;46.03;97398.34;6147871;28;125511;-63
2020/12/30 11:40:29;;;;;;;;;27.00;26.40;;;;;13.22;46.14;97385.13;6131166;28;125927;-61
2020/12/30 11:43:30;;;;;;;;;29.00;26.40;;;;;13.31;46.47;97400.50;6161301;28;125543;-61
2020/12/30 11:46:32;;;;;;;;;28.00;25.60;;;;;13.16;46.42;97369.97;6159842;28;125067;-61
2020/12/30 11:49:33;;;;;;;;;24.60;24.40;;;;;12.96;46.67;97341.84;6160737;28;124918;-62
2020/12/30 11:52:34;;;;;;;;;28.67;26.67;;;;;13.29;46.71;97399.19;6161011;28;126606;-61
2020/12/30 11:55:36;;;;;;;;;26.75;26.00;;;;;13.26;45.82;97395.09;6156012;28;123693;-61
2020/12/30 11:58:37;;;;;;;;;23.60;23.00;;;;;13.35;45.92;97398.06;6160972;28;127619;-61
2020/12/30 12:01:39;;;;;;;;;24.00;24.00;;;;;13.35;46.28;97401.56;6145093;28;127761;-62
2020/12/30 12:04:40;;;;;;;;;30.50;27.00;;;;;13.13;46.36;97363.22;6152765;28;127521;-62
2020/12/30 12:07:42;;;;;;;;;27.20;25.20;;;;;13.40;46.09;97398.84;6129727;28;126554;-62
2020/12/30 12:10:44;;;;;;;;;26.75;24.00;;;;;13.03;46.66;97347.81;6157915;28;126050;-62
2020/12/30 12:13:45;;;;;;;;;28.75;25.00;;;;;13.20;46.94;97385.38;6160014;28;126647;-61
2020/12/30 12:16:57;;;;;;;;;32.00;27.40;;;;;13.40;47.24;97414.28;6160181;28;126956;-62
2020/12/30 12:19:59;;;;;;;;;23.25;22.75;;;;;13.39;47.34;97412.66;6158088;28;126005;-61
2020/12/30 12:23:03;;;;;;;;;30.00;26.40;;;;;13.40;47.60;97411.56;6160307;28;126682;-61
2020/12/30 12:26:05;;;;;;;;;25.80;25.40;;;;;13.39;47.51;97410.75;6149048;28;124778;-62
2020/12/30 12:29:47;;;;;;;;;28.00;25.60;;;;;13.36;47.68;97413.22;6156270;28;126421;-62
2020/12/30 12:32:48;;;;;;;;;33.20;28.80;;;;;13.38;47.84;97416.47;6149491;28;126802;-62
2020/12/30 12:35:49;;;;;;;;;29.40;26.40;;;;;13.39;47.70;97423.47;6159942;28;127597;-62
2020/12/30 12:38:51;;;;;;;;;27.60;25.00;;;;;13.25;47.90;97441.38;6142963;28;125605;-62
2020/12/30 12:41:53;;;;;;;;;29.75;28.75;;;;;13.36;47.95;97434.88;6158597;28;126582;-62
2020/12/30 12:44:55;;;;;;;;;28.00;25.00;;;;;13.33;48.08;97430.00;6155817;28;126356;-62
2020/12/30 12:47:58;;;;;;;;;28.40;24.40;;;;;13.22;47.98;97434.63;6160152;28;125615;-62
2020/12/30 12:50:59;;;;;;;;;31.00;27.40;;;;;13.27;48.04;97431.09;6149520;28;125033;-62
2020/12/30 12:54:01;;;;;;;;;31.20;28.80;;;;;13.23;48.32;97435.44;6160086;28;125586;-62
2020/12/30 12:57:04;;;;;;;;;26.75;25.00;;;;;13.16;47.72;97432.19;6160254;28;126839;-61
2020/12/30 13:00:06;;;;;;;;;29.00;27.00;;;;;13.22;47.96;97437.34;6143888;28;125009;-61
2020/12/30 13:03:07;;;;;;;;;33.00;27.40;;;;;13.18;48.23;97436.28;6161794;28;124603;-62
2020/12/30 13:06:08;;;;;;;;;29.80;26.00;;;;;13.13;48.02;97438.16;6158944;28;126681;-63
2020/12/30 13:09:12;;;;;;;;;31.40;28.60;;;;;13.11;48.08;97438.44;6147820;28;127535;-63
2020/12/30 13:12:14;;;;;;;;;33.00;29.00;;;;;12.92;48.16;97413.00;6149813;28;124907;-62
2020/12/30 13:15:16;;;;;;;;;34.40;29.40;;;;;13.16;48.21;97445.72;6153169;28;127442;-62
2020/12/30 13:18:18;;;;;;;;;35.80;31.00;;;;;13.08;48.23;97433.53;6159584;28;127685;-62
2020/12/30 13:21:19;;;;;;;;;32.00;30.00;;;;;13.19;48.02;97434.38;6158845;28;125823;-63
2020/12/30 13:24:20;;;;;;;;;36.40;32.00;;;;;13.18;47.80;97432.75;6152285;28;126878;-61
2020/12/30 13:27:22;;;;;;;;;35.00;30.50;;;;;13.10;48.12;97433.25;6156073;28;126300;-62
2020/12/30 13:30:23;;;;;;;;;39.40;35.00;;;;;13.13;47.91;97443.59;6138205;28;127732;-62
2020/12/30 13:33:24;;;;;;;;;39.20;33.00;;;;;13.13;47.93;97449.81;6152820;28;127166;-63
2020/12/30 13:36:27;;;;;;;;;39.50;33.00;;;;;12.99;48.05;97435.19;6158644;28;126468;-61
2020/12/30 13:39:29;;;;;;;;;38.00;32.80;;;;;13.01;48.57;97458.16;6157988;28;126088;-62
2020/12/30 13:42:30;;;;;;;;;42.00;33.20;;;;;12.99;48.50;97460.34;6158607;28;124666;-62
2020/12/30 13:45:32;;;;;;;;;36.33;32.00;;;;;12.98;48.55;97460.59;6156853;28;125282;-62
2020/12/30 13:48:33;;;;;;;;;37.40;32.00;;;;;12.85;48.22;97451.13;6145128;28;127100;-64
2020/12/30 13:51:35;;;;;;;;;40.67;33.67;;;;;12.85;48.82;97470.06;6158660;28;127702;-62
2020/12/30 13:54:36;;;;;;;;;39.00;34.00;;;;;12.79;48.80;97471.16;6158588;28;126558;-63
2020/12/30 13:57:38;;;;;;;;;42.00;34.40;;;;;12.80;48.84;97467.38;6158082;28;126822;-62